Time;durP1;ratioP1;P1;durP2;ratioP2;P2;SDS_P1;SDS_P2;PMS_P1;PMS_P2;Temp;Humidity;BMP_temperature;BMP_pressure;BME280_temperature;BME280_humidity;BME280_pressure;Samples;Min_cycle;Max_cycle;Signal;HPM_P1;HPM_P2
2022/10/20 00:00:52;;;;;;;1999.90;999.90;;;11.40;99.90;;;;;;5069311;28;20451;-70
2022/10/20 00:03:20;;;;;;;1999.90;999.90;;;11.40;99.90;;;;;;5069374;28;20446;-70
2022/10/20 00:05:47;;;;;;;1999.90;999.90;;;11.50;99.90;;;;;;5069558;28;20447;-70
2022/10/20 00:08:14;;;;;;;1999.90;999.90;;;11.40;99.90;;;;;;5069348;28;20980;-71
2022/10/20 00:10:41;;;;;;;1999.90;999.90;;;11.40;99.90;;;;;;5068629;28;20443;-71
2022/10/20 00:13:07;;;;;;;1999.90;999.90;;;11.40;99.90;;;;;;5069061;28;20443;-70
2022/10/20 00:15:34;;;;;;;1999.90;999.90;;;11.40;99.90;;;;;;5068895;28;20443;-70
2022/10/20 00:18:01;;;;;;;1999.90;999.90;;;11.40;99.90;;;;;;5069670;28;20470;-70
2022/10/20 00:20:29;;;;;;;1999.90;999.90;;;11.40;99.90;;;;;;5069775;28;20443;-70
2022/10/20 00:22:56;;;;;;;1999.90;999.90;;;11.30;99.90;;;;;;5068672;28;20439;-70
2022/10/20 00:25:23;;;;;;;1999.90;999.90;;;11.40;99.90;;;;;;5069125;28;20498;-70
2022/10/20 00:27:49;;;;;;;1999.90;999.90;;;11.40;99.90;;;;;;5069435;28;20470;-70
2022/10/20 00:30:16;;;;;;;1999.90;999.90;;;11.40;99.90;;;;;;5069296;28;20451;-70
2022/10/20 00:32:43;;;;;;;1999.90;999.90;;;11.30;99.90;;;;;;5068681;28;20953;-71
2022/10/20 00:35:10;;;;;;;1999.90;999.90;;;11.30;99.90;;;;;;5068966;28;20459;-70
2022/10/20 00:37:38;;;;;;;1999.90;999.90;;;11.40;99.90;;;;;;5069373;28;20463;-70
2022/10/20 00:40:05;;;;;;;1999.90;999.90;;;11.40;99.90;;;;;;5069420;28;20447;-71
2022/10/20 00:42:32;;;;;;;1999.90;999.90;;;11.40;99.90;;;;;;5068663;28;20443;-70
2022/10/20 00:45:00;;;;;;;1999.90;999.90;;;11.40;99.90;;;;;;5069175;28;20482;-70
2022/10/20 00:47:36;;;;;;;1999.90;999.90;;;11.40;99.90;;;;;;5069763;28;20463;-70
2022/10/20 00:50:08;;;;;;;1999.90;999.90;;;11.40;99.90;;;;;;5069595;28;20442;-70
2022/10/20 00:52:36;;;;;;;1999.90;999.90;;;11.40;99.90;;;;;;5068765;28;20455;-70
2022/10/20 00:55:06;;;;;;;1999.90;999.90;;;11.40;99.90;;;;;;5068813;28;20592;-70
2022/10/20 00:57:33;;;;;;;1999.90;999.90;;;11.30;99.90;;;;;;5069456;28;20463;-70
2022/10/20 01:00:00;;;;;;;1999.90;999.90;;;11.40;99.90;;;;;;5069396;28;20447;-70
2022/10/20 01:02:27;;;;;;;1999.90;999.90;;;11.40;99.90;;;;;;5068537;28;20450;-70
2022/10/20 01:04:54;;;;;;;1999.90;999.90;;;11.30;99.90;;;;;;5068796;28;20561;-70
2022/10/20 01:07:21;;;;;;;1999.90;999.90;;;11.30;99.90;;;;;;5068860;28;20490;-70
2022/10/20 01:09:48;;;;;;;1999.90;999.90;;;11.40;99.90;;;;;;5068946;28;20451;-71
2022/10/20 01:12:27;;;;;;;1999.90;999.90;;;11.30;99.90;;;;;;5068342;28;20968;-71
2022/10/20 01:15:02;;;;;;;1999.90;999.90;;;11.30;99.90;;;;;;5068709;28;20443;-70
2022/10/20 01:17:39;;;;;;;1999.90;999.90;;;11.30;99.90;;;;;;5069009;28;20473;-70
2022/10/20 01:20:39;;;;;;;1999.90;999.90;;;11.30;99.90;;;;;;5068917;28;20477;-71
2022/10/20 01:23:40;;;;;;;1999.90;999.90;;;11.30;99.90;;;;;;5039648;28;20447;-71
2022/10/20 01:26:28;;;;;;;1999.90;999.90;;;11.30;99.90;;;;;;5072109;28;20435;-70
2022/10/20 01:28:59;;;;;;;1999.90;999.90;;;11.20;99.90;;;;;;5072656;28;20439;-71
2022/10/20 01:31:30;;;;;;;1999.90;999.90;;;11.20;99.90;;;;;;5070832;28;21095;-70
2022/10/20 01:34:07;;;;;;;1999.90;999.90;;;11.20;99.90;;;;;;5071922;28;20458;-70
2022/10/20 01:36:38;;;;;;;1999.90;999.90;;;11.20;99.90;;;;;;5071888;28;20438;-70
2022/10/20 01:39:11;;;;;;;1999.90;999.90;;;11.20;99.90;;;;;;5072487;28;20415;-70
2022/10/20 01:41:43;;;;;;;1999.90;999.90;;;11.20;99.90;;;;;;5071713;28;20817;-70
2022/10/20 01:44:14;;;;;;;1999.90;999.90;;;11.20;99.90;;;;;;5072183;28;20481;-71
2022/10/20 01:46:43;;;;;;;1999.90;999.90;;;11.20;99.90;;;;;;5072035;28;20470;-70
2022/10/20 01:49:11;;;;;;;1999.90;999.90;;;11.20;99.90;;;;;;5071912;28;20451;-70
2022/10/20 01:51:38;;;;;;;1999.90;999.90;;;11.20;99.90;;;;;;5071345;28;20968;-70
2022/10/20 01:54:05;;;;;;;1999.90;999.90;;;11.10;99.90;;;;;;5071920;28;20443;-70
2022/10/20 01:56:38;;;;;;;1999.90;999.90;;;11.20;99.90;;;;;;5071694;28;20823;-71
2022/10/20 01:59:24;;;;;;;1999.90;999.90;;;11.10;99.90;;;;;;5071837;28;20439;-70
2022/10/20 02:02:11;;;;;;;1999.90;999.90;;;11.00;99.90;;;;;;5070955;28;20454;-70
2022/10/20 02:05:03;;;;;;;1999.90;999.90;;;11.00;99.90;;;;;;5071358;28;20836;-70
2022/10/20 02:07:32;;;;;;;1999.90;999.90;;;11.10;99.90;;;;;;5071522;28;20459;-70
2022/10/20 02:10:04;;;;;;;1999.90;999.90;;;11.10;99.90;;;;;;5071524;28;20450;-70
2022/10/20 02:12:35;;;;;;;1999.90;999.90;;;11.00;99.90;;;;;;5071140;28;20451;-70
2022/10/20 02:15:05;;;;;;;1999.90;999.90;;;11.00;99.90;;;;;;5071173;28;20929;-70
2022/10/20 02:17:35;;;;;;;1999.90;999.90;;;10.90;99.90;;;;;;5071698;28;20466;-70
2022/10/20 02:20:05;;;;;;;1999.90;999.90;;;10.90;99.90;;;;;;5071547;28;20458;-71
2022/10/20 02:22:32;;;;;;;1999.90;999.90;;;10.90;99.90;;;;;;5070396;28;20447;-70
2022/10/20 02:25:00;;;;;;;1999.90;999.90;;;10.90;99.90;;;;;;5070873;28;20501;-70
2022/10/20 02:27:32;;;;;;;1999.90;999.90;;;10.80;99.90;;;;;;5071276;28;20506;-70
2022/10/20 02:30:04;;;;;;;1999.90;999.90;;;10.70;99.90;;;;;;5071506;28;20856;-70
2022/10/20 02:32:33;;;;;;;1999.90;999.90;;;10.70;99.90;;;;;;5070293;28;20458;-71
2022/10/20 02:35:00;;;;;;;1999.90;999.90;;;10.60;99.90;;;;;;5069932;28;20447;-70
2022/10/20 02:37:27;;;;;;;1999.90;999.90;;;10.60;99.90;;;;;;5070840;28;20451;-70
2022/10/20 02:39:53;;;;;;;1999.90;999.90;;;10.50;99.90;;;;;;5071380;28;20442;-70
2022/10/20 02:42:20;;;;;;;1999.90;999.90;;;10.40;99.90;;;;;;5070130;28;20431;-70
2022/10/20 02:44:47;;;;;;;1999.90;999.90;;;10.30;99.90;;;;;;5070813;28;20483;-70
2022/10/20 02:47:15;;;;;;;1999.90;999.90;;;10.40;99.90;;;;;;5070823;28;20451;-70
2022/10/20 02:49:42;;;;;;;1999.90;999.90;;;10.40;99.90;;;;;;5070895;28;20960;-70
2022/10/20 02:52:09;;;;;;;1999.90;999.90;;;10.50;99.90;;;;;;5070526;28;20439;-70
2022/10/20 02:54:35;;;;;;;1999.90;999.90;;;10.50;99.90;;;;;;5070779;28;20440;-70
2022/10/20 02:57:02;;;;;;;1999.90;999.90;;;10.50;99.90;;;;;;5070880;28;20459;-70
2022/10/20 02:59:29;;;;;;;1999.90;999.90;;;10.50;99.90;;;;;;5070657;28;20443;-70
2022/10/20 03:01:56;;;;;;;1999.90;999.90;;;10.50;99.90;;;;;;5069831;28;20454;-70
2022/10/20 03:04:24;;;;;;;1999.90;999.90;;;10.50;99.90;;;;;;5069884;28;20443;-70
2022/10/20 03:06:50;;;;;;;1999.90;999.90;;;10.50;99.90;;;;;;5070596;28;20466;-70
2022/10/20 03:09:17;;;;;;;1999.90;999.90;;;10.60;99.90;;;;;;5070619;28;20451;-70
2022/10/20 03:11:44;;;;;;;1999.90;999.90;;;10.60;99.90;;;;;;5069730;28;20450;-71
2022/10/20 03:14:11;;;;;;;1999.90;999.90;;;10.60;99.90;;;;;;5070399;28;20451;-70
2022/10/20 03:16:38;;;;;;;1999.90;999.90;;;10.60;99.90;;;;;;5070066;28;20463;-70
2022/10/20 03:19:05;;;;;;;1999.90;999.90;;;10.60;99.90;;;;;;5070369;28;20478;-70
2022/10/20 03:21:33;;;;;;;1999.90;999.90;;;10.60;99.90;;;;;;5069915;28;20451;-70
2022/10/20 03:23:59;;;;;;;1999.90;999.90;;;10.60;99.90;;;;;;5070095;28;20450;-70
2022/10/20 03:26:26;;;;;;;1999.90;999.90;;;10.50;99.90;;;;;;5069501;28;20486;-70
2022/10/20 03:28:53;;;;;;;1999.90;999.90;;;10.50;99.90;;;;;;5070322;28;20454;-70
2022/10/20 03:31:20;;;;;;;1999.90;999.90;;;10.40;99.90;;;;;;5069522;28;20465;-70
2022/10/20 03:33:46;;;;;;;1999.90;999.90;;;10.40;99.90;;;;;;5069579;28;20447;-70
2022/10/20 03:36:13;;;;;;;1999.90;999.90;;;10.50;99.90;;;;;;5069773;28;20443;-70
2022/10/20 03:38:42;;;;;;;1999.90;999.90;;;10.40;99.90;;;;;;5070128;28;20463;-70
2022/10/20 03:41:09;;;;;;;1999.90;999.90;;;10.30;99.90;;;;;;5069573;28;20443;-70
2022/10/20 03:43:35;;;;;;;1999.90;999.90;;;10.30;99.90;;;;;;5069637;28;20451;-70
2022/10/20 03:46:03;;;;;;;1999.90;999.90;;;10.40;99.90;;;;;;5068332;28;20479;-70
2022/10/20 03:48:30;;;;;;;1999.90;999.90;;;10.40;99.90;;;;;;5070052;28;20474;-69
2022/10/20 03:50:57;;;;;;;1999.90;999.90;;;10.40;99.90;;;;;;5069484;28;20443;-70
2022/10/20 03:53:24;;;;;;;1999.90;999.90;;;10.40;99.90;;;;;;5069193;28;20451;-70
2022/10/20 03:55:52;;;;;;;1999.90;999.90;;;10.40;99.90;;;;;;5069291;28;20446;-70
2022/10/20 03:58:19;;;;;;;1999.90;999.90;;;10.40;99.90;;;;;;5069439;28;20826;-70
2022/10/20 04:00:46;;;;;;;1999.90;999.90;;;10.50;99.90;;;;;;5069120;28;20501;-70
2022/10/20 04:03:13;;;;;;;1999.90;999.90;;;10.50;99.90;;;;;;5069174;28;20446;-70
2022/10/20 04:05:39;;;;;;;1999.90;999.90;;;10.50;99.90;;;;;;5069184;28;20478;-70
2022/10/20 04:08:06;;;;;;;1999.90;999.90;;;10.50;99.90;;;;;;5069359;28;20475;-70
2022/10/20 04:10:33;;;;;;;1999.90;999.90;;;10.50;99.90;;;;;;5069552;28;20446;-70
2022/10/20 04:13:02;;;;;;;1999.90;999.90;;;10.60;99.90;;;;;;5068793;28;20446;-70
2022/10/20 04:15:29;;;;;;;1999.90;999.90;;;10.60;99.90;;;;;;5069042;28;20439;-70
2022/10/20 04:17:56;;;;;;;1999.90;999.90;;;10.70;99.90;;;;;;5069401;28;20489;-69
2022/10/20 04:20:22;;;;;;;1999.90;999.90;;;10.70;99.90;;;;;;5069517;28;20524;-69
2022/10/20 04:22:49;;;;;;;1999.90;999.90;;;10.70;99.90;;;;;;5068366;28;20936;-69
2022/10/20 04:25:16;;;;;;;1999.90;999.90;;;10.80;99.90;;;;;;5068804;28;20505;-69
2022/10/20 04:27:43;;;;;;;1999.90;999.90;;;10.80;99.90;;;;;;5066731;28;20468;-69
2022/10/20 04:30:11;;;;;;;1999.90;999.90;;;10.80;99.90;;;;;;5068122;28;20457;-69
2022/10/20 04:32:38;;;;;;;1999.90;999.90;;;10.90;99.90;;;;;;5063173;28;20435;-69
2022/10/20 04:35:06;;;;;;;1999.90;999.90;;;10.90;99.90;;;;;;5068613;28;20458;-69
2022/10/20 04:37:32;;;;;;;1999.90;999.90;;;11.00;99.90;;;;;;5069312;28;20467;-69
2022/10/20 04:39:59;;;;;;;1999.90;999.90;;;11.00;99.90;;;;;;5069244;28;20458;-70
2022/10/20 04:42:26;;;;;;;1999.90;999.90;;;11.10;99.90;;;;;;5068669;28;20454;-69
2022/10/20 04:44:53;;;;;;;1999.90;999.90;;;11.10;99.90;;;;;;5069082;28;20435;-70
2022/10/20 04:47:21;;;;;;;1999.90;999.90;;;11.10;99.90;;;;;;5069243;28;20463;-70
2022/10/20 04:49:47;;;;;;;1999.90;999.90;;;11.20;99.90;;;;;;5069341;28;20821;-69
2022/10/20 04:52:14;;;;;;;1999.90;999.90;;;11.20;99.90;;;;;;5068312;28;20447;-70
2022/10/20 04:54:41;;;;;;;1999.90;999.90;;;11.20;99.90;;;;;;5068979;28;20446;-72
2022/10/20 04:57:09;;;;;;;1999.90;999.90;;;11.20;99.90;;;;;;5059759;28;20451;-73
2022/10/20 04:59:36;;;;;;;1999.90;999.90;;;11.20;99.90;;;;;;5059706;28;20848;-72
2022/10/20 05:02:03;;;;;;;1999.90;999.90;;;11.30;99.90;;;;;;5060388;28;20850;-71
2022/10/20 05:04:31;;;;;;;1999.90;999.90;;;11.20;99.90;;;;;;5047779;28;20466;-73
2022/10/20 05:06:57;;;;;;;1999.90;999.90;;;11.30;99.90;;;;;;5054023;28;20489;-73
2022/10/20 05:09:24;;;;;;;1999.90;999.90;;;11.30;99.90;;;;;;5052636;28;20456;-73
2022/10/20 05:11:52;;;;;;;1999.90;999.90;;;11.30;99.90;;;;;;5053202;28;20461;-73
2022/10/20 05:14:18;;;;;;;1999.90;999.90;;;11.30;99.90;;;;;;5062262;28;20458;-73
2022/10/20 05:16:45;;;;;;;1999.90;999.90;;;11.40;99.90;;;;;;5051838;28;20465;-72
2022/10/20 05:19:12;;;;;;;1999.90;999.90;;;11.40;99.90;;;;;;5066832;28;20458;-73
2022/10/20 05:21:40;;;;;;;1999.90;999.90;;;11.40;99.90;;;;;;5064953;28;20454;-73
2022/10/20 05:24:07;;;;;;;1999.90;999.90;;;11.40;99.90;;;;;;5071231;28;20936;-73
2022/10/20 05:26:36;;;;;;;1999.90;999.90;;;11.40;99.90;;;;;;5071205;28;20482;-73
2022/10/20 05:29:05;;;;;;;1999.90;999.90;;;11.40;99.90;;;;;;5071197;28;20500;-73
2022/10/20 05:31:35;;;;;;;1999.90;999.90;;;11.40;99.90;;;;;;5071374;28;20457;-74
2022/10/20 05:34:02;;;;;;;1999.90;999.90;;;11.50;99.90;;;;;;5072657;28;20553;-73
2022/10/20 05:36:29;;;;;;;1999.90;999.90;;;11.50;99.90;;;;;;5072499;28;20451;-73
2022/10/20 05:38:57;;;;;;;1999.90;999.90;;;11.50;99.90;;;;;;5073133;28;20443;-73
2022/10/20 05:41:26;;;;;;;1999.90;999.90;;;11.50;99.90;;;;;;5072000;28;20447;-73
2022/10/20 05:43:56;;;;;;;1999.90;999.90;;;11.40;99.90;;;;;;5070885;28;20462;-74
2022/10/20 05:46:24;;;;;;;1999.90;999.90;;;11.40;99.90;;;;;;5071997;28;20482;-73
2022/10/20 05:48:53;;;;;;;1999.90;999.90;;;11.40;99.90;;;;;;5072505;28;20447;-73
2022/10/20 05:51:33;;;;;;;1999.90;999.90;;;11.30;99.90;;;;;;5071909;28;20454;-71
2022/10/20 05:54:02;;;;;;;1999.90;999.90;;;11.30;99.90;;;;;;5071870;28;20451;-70
2022/10/20 05:56:30;;;;;;;1999.90;999.90;;;11.30;99.90;;;;;;5071186;28;20439;-69
2022/10/20 05:58:58;;;;;;;1999.90;999.90;;;11.40;99.90;;;;;;5072047;28;20459;-69
2022/10/20 06:01:27;;;;;;;1999.90;999.90;;;11.40;99.90;;;;;;5071316;28;20450;-71
2022/10/20 06:03:55;;;;;;;1999.90;999.90;;;11.40;99.90;;;;;;5071182;28;20978;-71
2022/10/20 06:06:25;;;;;;;1999.90;999.90;;;11.40;99.90;;;;;;5071049;28;20479;-70
2022/10/20 06:08:52;;;;;;;1999.90;999.90;;;11.50;99.90;;;;;;5069790;28;20447;-71
2022/10/20 06:11:21;;;;;;;1999.90;999.90;;;11.50;99.90;;;;;;5071306;28;20554;-71
2022/10/20 06:13:47;;;;;;;1999.90;999.90;;;11.60;99.90;;;;;;5071361;28;20443;-71
2022/10/20 06:16:16;;;;;;;1999.90;999.90;;;11.60;99.90;;;;;;5071238;28;20453;-71
2022/10/20 06:18:43;;;;;;;1999.90;999.90;;;11.60;99.90;;;;;;5071405;28;20937;-71
2022/10/20 06:21:11;;;;;;;1999.90;999.90;;;11.70;99.90;;;;;;5071023;28;20451;-70
2022/10/20 06:23:39;;;;;;;1999.90;999.90;;;11.70;99.90;;;;;;5070729;28;20447;-70
2022/10/20 06:26:07;;;;;;;1999.90;999.90;;;11.80;99.90;;;;;;5071100;28;20486;-71
2022/10/20 06:28:37;;;;;;;1999.90;999.90;;;11.80;99.90;;;;;;5071299;28;20474;-71
2022/10/20 06:31:11;;;;;;;1999.90;999.90;;;11.90;99.90;;;;;;5071041;28;20439;-71
2022/10/20 06:33:39;;;;;;;1999.90;999.90;;;11.90;99.90;;;;;;5071034;28;20507;-71
2022/10/20 06:36:06;;;;;;;1999.90;999.90;;;11.90;99.90;;;;;;5070614;28;20461;-71
2022/10/20 06:38:33;;;;;;;1999.90;999.90;;;12.00;99.90;;;;;;5071147;28;20463;-70
2022/10/20 06:41:01;;;;;;;1999.90;999.90;;;12.10;99.90;;;;;;5070640;28;20451;-72
2022/10/20 06:43:28;;;;;;;1999.90;999.90;;;12.10;99.90;;;;;;5070419;28;20451;-71
2022/10/20 06:45:57;;;;;;;1999.90;999.90;;;12.10;99.90;;;;;;5070410;28;20473;-70
2022/10/20 06:48:25;;;;;;;1999.90;999.90;;;12.20;99.90;;;;;;5070644;28;20849;-71
2022/10/20 06:50:56;;;;;;;1999.90;999.90;;;12.20;99.90;;;;;;5070640;28;20442;-70
2022/10/20 06:53:23;;;;;;;1999.90;999.90;;;12.20;99.90;;;;;;5070577;28;20439;-70
2022/10/20 06:55:56;;;;;;;1999.90;999.90;;;12.30;99.90;;;;;;5070738;28;20808;-71
2022/10/20 06:58:23;;;;;;;1999.90;999.90;;;12.30;99.90;;;;;;5070950;28;20878;-70
2022/10/20 07:00:59;;;;;;;1999.90;999.90;;;12.30;99.90;;;;;;5070324;28;20454;-71
2022/10/20 07:03:26;;;;;;;1999.90;999.90;;;12.40;99.90;;;;;;5070735;28;20829;-72
2022/10/20 07:05:53;;;;;;;1999.90;999.90;;;12.40;99.90;;;;;;5070596;28;20477;-69
2022/10/20 07:08:20;;;;;;;1999.90;999.90;;;12.50;99.90;;;;;;5071008;28;20463;-69
2022/10/20 07:10:47;;;;;;;1999.90;999.90;;;12.50;99.90;;;;;;5070354;28;20928;-70
2022/10/20 07:13:14;;;;;;;1999.90;999.90;;;12.60;99.90;;;;;;5070203;28;20466;-68
2022/10/20 07:15:40;;;;;;;1999.90;999.90;;;12.60;99.90;;;;;;5069909;28;20442;-70
2022/10/20 07:18:08;;;;;;;1999.90;999.90;;;12.70;99.90;;;;;;5070708;28;20474;-69
2022/10/20 07:20:35;;;;;;;1999.90;999.90;;;12.80;99.90;;;;;;5069505;28;20959;-70
2022/10/20 07:23:02;;;;;;;1999.90;999.90;;;12.90;99.90;;;;;;5070013;28;20466;-70
2022/10/20 07:25:30;;;;;;;1999.90;999.90;;;13.00;99.90;;;;;;5069731;28;20438;-68
2022/10/20 07:27:56;;;;;;;1999.90;999.90;;;13.00;99.90;;;;;;5069997;28;20494;-69
2022/10/20 07:30:23;;;;;;;1999.90;999.90;;;13.10;99.90;;;;;;5070190;28;20738;-70
2022/10/20 07:32:50;;;;;;;1999.90;999.90;;;13.30;99.90;;;;;;5069153;28;20454;-70
2022/10/20 07:35:18;;;;;;;1999.90;999.90;;;13.30;99.90;;;;;;5069517;28;20489;-69
2022/10/20 07:37:45;;;;;;;1999.90;999.90;;;13.40;99.90;;;;;;5069576;28;20467;-69
2022/10/20 07:40:12;;;;;;;1999.90;999.90;;;13.50;99.90;;;;;;5069990;28;20451;-70
2022/10/20 07:42:39;;;;;;;1999.90;999.90;;;13.50;99.90;;;;;;5068852;28;20447;-68
2022/10/20 07:45:07;;;;;;;1999.90;999.90;;;13.60;99.90;;;;;;5069873;28;20447;-70
2022/10/20 07:47:33;;;;;;;1999.90;999.90;;;13.70;99.90;;;;;;5069849;28;20487;-70
2022/10/20 07:50:00;;;;;;;1999.90;999.90;;;13.80;99.90;;;;;;5070035;28;20454;-71
2022/10/20 07:52:29;;;;;;;1999.90;999.90;;;13.90;99.90;;;;;;5069325;28;20454;-69
2022/10/20 07:54:55;;;;;;;1999.90;999.90;;;14.10;99.90;;;;;;5069441;28;20550;-69
2022/10/20 07:57:22;;;;;;;1999.90;999.90;;;14.20;99.90;;;;;;5069474;28;20459;-68
2022/10/20 07:59:49;;;;;;;1999.90;999.90;;;14.40;99.90;;;;;;5069706;28;20937;-68
2022/10/20 08:02:16;;;;;;;1999.90;999.90;;;14.40;99.90;;;;;;5068845;28;21079;-68
2022/10/20 08:04:44;;;;;;;1999.90;999.90;;;14.50;99.90;;;;;;5069299;28;20451;-67
2022/10/20 08:07:11;;;;;;;1999.90;999.90;;;14.60;99.90;;;;;;5069576;28;20713;-65
2022/10/20 08:09:39;;;;;;;1999.90;999.90;;;14.70;99.90;;;;;;5069587;28;20451;-66
2022/10/20 08:12:06;;;;;;;1999.90;999.90;;;14.70;99.90;;;;;;5068698;28;20454;-68
2022/10/20 08:14:34;;;;;;;1999.90;999.90;;;14.70;99.90;;;;;;5068562;28;20455;-69
2022/10/20 08:17:02;;;;;;;1999.90;999.90;;;14.70;99.90;;;;;;5068834;28;20495;-70
2022/10/20 08:19:29;;;;;;;1999.90;999.90;;;14.90;99.90;;;;;;5069149;28;20470;-69
2022/10/20 08:21:56;;;;;;;1999.90;999.90;;;15.00;99.90;;;;;;5068323;28;20454;-70
2022/10/20 08:24:23;;;;;;;1999.90;999.90;;;15.10;99.90;;;;;;5068523;28;20451;-70
2022/10/20 08:26:51;;;;;;;1999.90;999.90;;;15.20;99.90;;;;;;5068950;28;20478;-69
2022/10/20 08:29:17;;;;;;;1999.90;999.90;;;15.40;99.90;;;;;;5069027;28;20805;-69
2022/10/20 08:31:44;;;;;;;1999.90;999.90;;;15.50;99.90;;;;;;5068847;28;20464;-69
2022/10/20 08:34:11;;;;;;;1999.90;999.90;;;15.60;99.90;;;;;;5072695;28;20462;-70
2022/10/20 08:36:38;;;;;;;1999.90;999.90;;;15.80;99.90;;;;;;5072498;28;20952;-69
2022/10/20 08:39:05;;;;;;;1999.90;999.90;;;15.90;99.90;;;;;;5062196;28;20466;-72
2022/10/20 08:41:37;;;;;;;1999.90;999.90;;;16.00;99.90;;;;;;5070100;28;20832;-71
2022/10/20 08:44:07;;;;;;;1999.90;999.90;;;16.10;99.90;;;;;;5071014;28;20445;-72
2022/10/20 08:46:36;;;;;;;1999.90;999.90;;;16.30;99.90;;;;;;5070346;28;20501;-73
2022/10/20 08:49:05;;;;;;;1999.90;999.90;;;16.40;99.90;;;;;;5064304;28;20459;-72
2022/10/20 08:51:36;;;;;;;1999.90;999.90;;;16.40;99.90;;;;;;5063509;28;20435;-72
2022/10/20 08:54:04;;;;;;;1999.90;999.90;;;16.50;99.90;;;;;;5070831;28;20467;-74
2022/10/20 08:56:34;;;;;;;1999.90;999.90;;;16.50;99.90;;;;;;5070911;28;20439;-72
2022/10/20 08:59:02;;;;;;;1999.90;999.90;;;16.70;99.90;;;;;;5071474;28;20443;-72
2022/10/20 09:01:34;;;;;;;1999.90;999.90;;;16.70;99.90;;;;;;5070686;28;20442;-74
2022/10/20 09:04:04;;;;;;;1999.90;999.90;;;16.80;99.90;;;;;;5070861;28;20440;-71
2022/10/20 09:06:32;;;;;;;1999.90;999.90;;;17.00;99.90;;;;;;5070732;28;21210;-72
2022/10/20 09:09:00;;;;;;;1999.90;999.90;;;17.10;99.90;;;;;;5071121;28;20447;-71
2022/10/20 09:11:33;;;;;;;1999.90;999.90;;;17.30;99.90;;;;;;5070908;28;20446;-72
2022/10/20 09:14:00;;;;;;;1999.90;999.90;;;17.50;99.90;;;;;;5070710;28;20455;-69
2022/10/20 09:16:32;;;;;;;1999.90;999.90;;;17.60;99.90;;;;;;5070369;28;20477;-68
2022/10/20 09:19:00;;;;;;;1999.90;999.90;;;17.60;99.90;;;;;;5071208;28;20492;-71
2022/10/20 09:21:30;;;;;;;1999.90;999.90;;;17.80;99.90;;;;;;5070755;28;20665;-71
2022/10/20 09:24:01;;;;;;;1999.90;999.90;;;18.10;99.90;;;;;;5063061;28;20470;-72
2022/10/20 09:26:34;;;;;;;1999.90;999.90;;;18.40;99.90;;;;;;5070229;28;20451;-75
2022/10/20 09:29:07;;;;;;;1999.90;999.90;;;18.60;99.90;;;;;;5070622;28;20810;-72
2022/10/20 09:31:37;;;;;;;1999.90;999.90;;;18.70;99.90;;;;;;5070398;28;20478;-70
2022/10/20 09:34:20;;;;;;;1999.90;999.90;;;19.00;99.90;;;;;;5070200;28;20451;-72
2022/10/20 09:36:48;;;;;;;1999.90;999.90;;;19.30;99.90;;;;;;5070631;28;20463;-72
2022/10/20 09:39:19;;;;;;;1999.90;999.90;;;19.60;99.90;;;;;;5070035;28;20999;-73
2022/10/20 09:41:47;;;;;;;1999.90;999.90;;;19.70;99.90;;;;;;5069497;28;20447;-73
2022/10/20 09:44:22;;;;;;;1999.90;999.90;;;19.90;99.90;;;;;;5070182;28;20442;-71
2022/10/20 09:46:52;;;;;;;1999.90;999.90;;;20.00;99.90;;;;;;5070368;28;20474;-71
2022/10/20 09:49:25;;;;;;;1999.90;999.90;;;20.00;99.90;;;;;;5070950;28;20853;-74
2022/10/20 09:51:52;;;;;;;1999.90;999.90;;;20.00;99.90;;;;;;5069151;28;20448;-72
2022/10/20 09:54:22;;;;;;;1999.90;999.90;;;20.10;99.90;;;;;;5070523;28;20455;-74
2022/10/20 09:56:51;;;;;;;1999.90;999.90;;;20.10;99.90;;;;;;5070713;28;20466;-73
2022/10/20 09:59:22;;;;;;;1999.90;999.90;;;20.10;99.90;;;;;;5071239;28;20487;-72
2022/10/20 10:01:56;;;;;;;1999.90;999.90;;;20.00;99.90;;;;;;5071156;28;20454;-71
2022/10/20 10:04:34;;;;;;;1999.90;999.90;;;20.00;99.90;;;;;;5071824;28;20443;-72
2022/10/20 10:07:01;;;;;;;1999.90;999.90;;;19.90;99.90;;;;;;5072029;28;20858;-71
2022/10/20 10:09:33;;;;;;;1999.90;999.90;;;19.70;99.90;;;;;;5072680;28;20577;-70
2022/10/20 10:12:02;;;;;;;1999.90;999.90;;;19.50;99.90;;;;;;5071689;28;20553;-74
2022/10/20 10:14:32;;;;;;;1999.90;999.90;;;19.40;99.90;;;;;;5071687;28;20834;-72
2022/10/20 10:17:01;;;;;;;1999.90;999.90;;;19.30;99.90;;;;;;5071773;28;20455;-73
2022/10/20 10:19:30;;;;;;;1999.90;999.90;;;19.30;99.90;;;;;;5071881;28;20454;-71
2022/10/20 10:22:00;;;;;;;1999.90;999.90;;;19.30;99.90;;;;;;5070683;28;20622;-72
2022/10/20 10:24:46;;;;;;;1999.90;999.90;;;19.50;99.90;;;;;;5071174;28;20443;-72
2022/10/20 10:27:22;;;;;;;1999.90;999.90;;;19.70;99.90;;;;;;5071044;28;20483;-73
2022/10/20 10:29:49;;;;;;;1999.90;999.90;;;19.90;99.90;;;;;;5071520;28;20445;-69
2022/10/20 10:32:23;;;;;;;1999.90;999.90;;;20.10;99.90;;;;;;5070360;28;20443;-71
2022/10/20 10:35:06;;;;;;;1999.90;999.90;;;20.20;99.90;;;;;;5070836;28;20458;-72
2022/10/20 10:37:34;;;;;;;1999.90;999.90;;;20.00;99.90;;;;;;5071140;28;20545;-71
2022/10/20 10:40:02;;;;;;;1999.90;999.90;;;19.90;99.90;;;;;;5071162;28;20454;-72
2022/10/20 10:42:53;;;;;;;1999.90;999.90;;;20.10;99.90;;;;;;5063920;28;20838;-70
2022/10/20 10:45:33;;;;;;;1999.90;999.90;;;20.20;99.90;;;;;;5061557;28;20565;-72
2022/10/20 10:48:18;;;;;;;1999.90;999.90;;;20.30;99.90;;;;;;5068599;28;20557;-73
2022/10/20 10:50:53;;;;;;;1999.90;999.90;;;20.50;99.90;;;;;;5068440;28;20451;-72
2022/10/20 10:53:36;;;;;;;1999.90;999.90;;;20.70;99.90;;;;;;5068523;28;20449;-74
2022/10/20 10:56:13;;;;;;;1999.90;999.90;;;20.80;99.90;;;;;;5067789;28;20443;-71
2022/10/20 10:58:46;;;;;;;1999.90;999.90;;;20.90;99.90;;;;;;5068558;28;20462;-71
2022/10/20 11:01:38;;;;;;;1999.90;999.90;;;20.90;99.90;;;;;;5068325;28;20501;-69
2022/10/20 11:04:35;;;;;;;1999.90;999.90;;;20.90;99.90;;;;;;5065865;28;20459;-72
2022/10/20 11:07:10;;;;;;;1999.90;999.90;;;20.80;99.90;;;;;;5065458;28;20470;-71
2022/10/20 11:09:46;;;;;;;1999.90;999.90;;;20.80;99.90;;;;;;5068490;28;20447;-71
2022/10/20 11:12:27;;;;;;;1999.90;999.90;;;20.60;99.90;;;;;;5067341;28;20454;-70
2022/10/20 11:15:03;;;;;;;1999.90;999.90;;;20.40;99.90;;;;;;5053826;28;20448;-68
2022/10/20 11:17:45;;;;;;;1999.90;999.90;;;20.30;99.90;;;;;;5058152;28;20459;-71
2022/10/20 11:20:29;;;;;;;1999.90;999.90;;;20.10;99.90;;;;;;5068357;28;20451;-71
2022/10/20 11:23:21;;;;;;;1999.90;999.90;;;20.00;99.90;;;;;;5068286;28;20504;-70
2022/10/20 11:25:52;;;;;;;1999.90;999.90;;;20.00;99.90;;;;;;5069855;28;20439;-70
2022/10/20 11:28:29;;;;;;;1999.90;999.90;;;20.10;99.90;;;;;;5070225;28;20483;-70
2022/10/20 11:30:57;;;;;;;1999.90;999.90;;;20.10;99.90;;;;;;5070221;28;20834;-70
2022/10/20 11:33:30;;;;;;;1999.90;999.90;;;20.30;99.90;;;;;;5070438;28;20443;-70
2022/10/20 11:36:03;;;;;;;1999.90;999.90;;;20.60;99.90;;;;;;5070533;28;20995;-71
2022/10/20 11:38:40;;;;;;;1999.90;999.90;;;20.70;99.90;;;;;;5071235;28;20517;-71
2022/10/20 11:41:11;;;;;;;1999.90;999.90;;;20.70;99.90;;;;;;5071926;28;20462;-70
2022/10/20 11:43:45;;;;;;;1999.90;999.90;;;20.80;99.90;;;;;;5069665;28;20483;-70
2022/10/20 11:46:15;;;;;;;1999.90;999.90;;;20.80;99.90;;;;;;5066114;28;20455;-68
2022/10/20 11:48:46;;;;;;;1999.90;999.90;;;20.90;99.90;;;;;;5064115;28;21091;-69
2022/10/20 11:51:54;;;;;;;1999.90;999.90;;;20.90;99.90;;;;;;5069818;28;20447;-71
2022/10/20 11:54:46;;;;;;;1999.90;999.90;;;21.00;99.90;;;;;;5043458;28;20447;-68
2022/10/20 11:57:20;;;;;;;1999.90;999.90;;;20.90;99.90;;;;;;5070229;28;20463;-72
2022/10/20 12:00:17;;;;;;;1999.90;999.90;;;20.60;99.90;;;;;;5069963;28;20446;-70
2022/10/20 12:03:18;;;;;;;1999.90;999.90;;;20.50;99.90;;;;;;5069208;28;20443;-67
2022/10/20 12:06:16;;;;;;;1999.90;999.90;;;20.30;99.90;;;;;;5069387;28;20486;-69
2022/10/20 12:09:01;;;;;;;1999.90;999.90;;;20.10;99.90;;;;;;5070160;28;21224;-73
2022/10/20 12:11:35;;;;;;;1999.90;999.90;;;20.10;99.90;;;;;;5069242;28;20451;-71
2022/10/20 12:14:11;;;;;;;1999.90;999.90;;;20.20;99.90;;;;;;5063336;28;20958;-74